Time;durP1;ratioP1;P1;durP2;ratioP2;P2;SDS_P1;SDS_P2;PMS_P1;PMS_P2;Temp;Humidity;BMP_temperature;BMP_pressure;BME280_temperature;BME280_humidity;BME280_pressure;Samples;Min_cycle;Max_cycle;Signal;HPM_P1;HPM_P2
2023/04/28 00:00:33;;;;;;;9.17;7.70;;;10.90;99.90;;;;;;5041636;28;20679;-78
2023/04/28 00:03:00;;;;;;;7.47;6.50;;;10.90;99.90;;;;;;5048288;28;20657;-78
2023/04/28 00:05:26;;;;;;;7.67;6.87;;;10.80;99.90;;;;;;5040625;28;20229;-78
2023/04/28 00:07:55;;;;;;;6.90;6.30;;;10.80;99.90;;;;;;5030928;28;20254;-79
2023/04/28 00:10:21;;;;;;;8.63;6.70;;;10.80;99.90;;;;;;5039645;28;20197;-77
2023/04/28 00:12:48;;;;;;;6.87;6.17;;;10.80;99.90;;;;;;5056567;28;20643;-78
2023/04/28 00:15:15;;;;;;;8.10;6.20;;;10.80;99.90;;;;;;5056439;28;20281;-78
2023/04/28 00:17:42;;;;;;;5.77;4.27;;;10.80;99.90;;;;;;5042789;28;20220;-78
2023/04/28 00:20:10;;;;;;;5.10;4.10;;;10.90;99.90;;;;;;5034760;28;20209;-78
2023/04/28 00:22:37;;;;;;;5.37;4.53;;;10.80;99.90;;;;;;5048847;28;20280;-78
2023/04/28 00:25:06;;;;;;;6.73;4.47;;;10.80;99.90;;;;;;5039537;28;20201;-79
2023/04/28 00:27:33;;;;;;;5.27;4.30;;;10.80;99.90;;;;;;5038944;28;20279;-78
2023/04/28 00:30:00;;;;;;;5.57;4.87;;;10.80;99.90;;;;;;5037787;28;20714;-78
2023/04/28 00:32:26;;;;;;;5.47;4.40;;;10.80;99.90;;;;;;5038217;28;20201;-78
2023/04/28 00:34:53;;;;;;;6.13;4.73;;;10.80;99.90;;;;;;5039097;28;20294;-78
2023/04/28 00:37:20;;;;;;;5.20;4.70;;;10.80;99.90;;;;;;5038876;28;20228;-78
2023/04/28 00:39:47;;;;;;;7.00;4.80;;;10.80;99.90;;;;;;5044991;28;20283;-78
2023/04/28 00:42:16;;;;;;;5.80;4.43;;;10.80;99.90;;;;;;5038024;28;20200;-78
2023/04/28 00:44:42;;;;;;;6.07;4.77;;;10.70;99.90;;;;;;5038710;28;20228;-78
2023/04/28 00:47:09;;;;;;;5.07;4.40;;;10.70;99.90;;;;;;5037141;28;20221;-78
2023/04/28 00:49:37;;;;;;;7.17;4.70;;;10.70;99.90;;;;;;5053150;28;20193;-78
2023/04/28 00:52:06;;;;;;;5.30;4.20;;;10.70;99.90;;;;;;5037189;28;20198;-78
2023/04/28 00:54:34;;;;;;;10.27;5.93;;;10.70;99.90;;;;;;5037518;28;20189;-78
2023/04/28 00:57:02;;;;;;;6.23;5.30;;;10.70;99.90;;;;;;5037021;28;20216;-78
2023/04/28 00:59:30;;;;;;;7.77;5.33;;;10.70;99.90;;;;;;5029376;28;20210;-78
2023/04/28 01:01:57;;;;;;;6.50;4.67;;;10.70;99.90;;;;;;5035986;28;20688;-78
2023/04/28 01:04:24;;;;;;;5.67;4.83;;;10.70;99.90;;;;;;5037361;28;20193;-78
2023/04/28 01:06:53;;;;;;;7.37;4.87;;;10.70;99.90;;;;;;5037343;28;20305;-78
2023/04/28 01:09:20;;;;;;;6.40;4.90;;;10.70;99.90;;;;;;5036706;28;20374;-78
2023/04/28 01:11:49;;;;;;;5.10;4.60;;;10.70;99.90;;;;;;5029357;28;20202;-78
2023/04/28 01:14:34;;;;;;;6.40;4.97;;;10.70;99.90;;;;;;5037414;28;20196;-78
2023/04/28 01:17:01;;;;;;;5.70;4.73;;;10.70;99.90;;;;;;5037098;28;20263;-78
2023/04/28 01:19:28;;;;;;;6.03;4.70;;;10.70;99.90;;;;;;5035043;28;20203;-78
2023/04/28 01:21:55;;;;;;;4.80;4.30;;;10.70;99.90;;;;;;5037407;28;20211;-78
2023/04/28 01:24:26;;;;;;;6.33;5.17;;;10.70;99.90;;;;;;5037021;28;20212;-78
2023/04/28 01:26:53;;;;;;;5.87;4.77;;;10.70;99.90;;;;;;5030729;28;20217;-79
2023/04/28 01:29:22;;;;;;;7.23;4.80;;;10.70;99.90;;;;;;5052009;28;20212;-78
2023/04/28 01:31:49;;;;;;;4.73;4.30;;;10.70;99.90;;;;;;5037186;28;20738;-78
2023/04/28 01:34:17;;;;;;;7.87;4.67;;;10.70;99.90;;;;;;5036244;28;20196;-78
2023/04/28 01:36:44;;;;;;;6.33;5.10;;;10.80;99.90;;;;;;5037031;28;20721;-78
2023/04/28 01:39:10;;;;;;;5.83;4.60;;;10.80;99.90;;;;;;5036039;28;20552;-78
2023/04/28 01:41:41;;;;;;;5.97;5.10;;;10.80;99.90;;;;;;5025161;28;20284;-79
2023/04/28 01:44:08;;;;;;;5.87;4.37;;;10.80;99.90;;;;;;5030734;28;20200;-78
2023/04/28 01:46:35;;;;;;;6.50;4.57;;;10.80;99.90;;;;;;5034520;28;20871;-78
2023/04/28 01:49:02;;;;;;;7.37;4.63;;;10.80;99.90;;;;;;5045538;28;20221;-78
2023/04/28 01:51:28;;;;;;;5.20;4.57;;;10.80;99.90;;;;;;5027839;28;20267;-78
2023/04/28 01:53:56;;;;;;;5.97;4.47;;;10.90;99.90;;;;;;5035237;28;20201;-79
2023/04/28 01:56:23;;;;;;;4.60;4.00;;;10.90;99.90;;;;;;5034918;28;20212;-78
2023/04/28 01:58:54;;;;;;;5.50;4.30;;;10.90;99.90;;;;;;5035386;28;20233;-78
2023/04/28 02:01:20;;;;;;;5.77;4.80;;;10.90;99.90;;;;;;5034882;28;20200;-78
2023/04/28 02:03:49;;;;;;;6.43;4.97;;;10.90;99.90;;;;;;5034616;28;20289;-77
2023/04/28 02:06:16;;;;;;;6.73;4.77;;;10.90;99.90;;;;;;5035542;28;20639;-78
2023/04/28 02:08:42;;;;;;;5.33;4.43;;;10.90;99.90;;;;;;5035860;28;20701;-78
2023/04/28 02:11:12;;;;;;;5.13;4.63;;;10.90;99.90;;;;;;5029323;28;20201;-77
2023/04/28 02:13:39;;;;;;;4.60;4.07;;;10.90;99.90;;;;;;5029856;28;20197;-78
2023/04/28 02:16:08;;;;;;;5.27;4.40;;;10.90;99.90;;;;;;5054917;28;20653;-78
2023/04/28 02:18:35;;;;;;;6.07;4.77;;;10.90;99.90;;;;;;5029502;28;20209;-78
2023/04/28 02:21:09;;;;;;;5.97;4.77;;;10.90;99.90;;;;;;5054542;28;20197;-78
2023/04/28 02:23:36;;;;;;;6.60;4.67;;;10.90;99.90;;;;;;5035154;28;20672;-78
2023/04/28 02:26:05;;;;;;;6.90;5.40;;;10.90;99.90;;;;;;5053188;28;20213;-78
2023/04/28 02:28:32;;;;;;;6.03;4.60;;;10.90;99.90;;;;;;5045032;28;20221;-78
2023/04/28 02:31:08;;;;;;;7.03;5.17;;;10.90;99.90;;;;;;5035605;28;20202;-78
2023/04/28 02:33:35;;;;;;;4.43;3.90;;;10.90;99.90;;;;;;5034890;28;20296;-79
2023/04/28 02:36:03;;;;;;;5.33;4.83;;;10.90;99.90;;;;;;5035240;28;20224;-78
2023/04/28 02:38:30;;;;;;;5.63;4.50;;;10.90;99.90;;;;;;5046526;28;20578;-78
2023/04/28 02:41:00;;;;;;;7.47;4.73;;;10.90;99.90;;;;;;5052912;28;20189;-82
2023/04/28 02:43:28;;;;;;;5.00;4.50;;;10.90;99.90;;;;;;5050879;28;20204;-78
2023/04/28 02:45:55;;;;;;;5.80;4.90;;;10.90;99.90;;;;;;5034904;28;20197;-79
2023/04/28 02:48:23;;;;;;;6.87;4.20;;;10.90;99.90;;;;;;5034138;28;20227;-79
2023/04/28 02:50:51;;;;;;;4.93;4.23;;;10.90;99.90;;;;;;5032795;28;20693;-79
2023/04/28 02:53:19;;;;;;;7.07;4.40;;;10.90;99.90;;;;;;5037957;28;20216;-79
2023/04/28 02:55:46;;;;;;;5.23;4.43;;;10.90;99.90;;;;;;5040694;28;20629;-80
2023/04/28 02:58:13;;;;;;;5.40;4.80;;;10.90;99.90;;;;;;5029515;28;20197;-80
2023/04/28 03:00:40;;;;;;;6.63;5.50;;;10.90;99.90;;;;;;5052383;28;20226;-80
2023/04/28 03:03:06;;;;;;;5.93;4.83;;;10.90;99.90;;;;;;5036426;28;20193;-80
2023/04/28 03:05:35;;;;;;;6.10;4.60;;;10.90;99.90;;;;;;5039297;28;20205;-80
2023/04/28 03:08:02;;;;;;;5.23;4.57;;;10.90;99.90;;;;;;5042603;28;20225;-81
2023/04/28 03:10:29;;;;;;;5.47;4.23;;;11.00;99.90;;;;;;5035873;28;20201;-80
2023/04/28 03:12:55;;;;;;;4.37;3.90;;;11.00;99.90;;;;;;5036139;28;20194;-80
2023/04/28 03:15:22;;;;;;;6.10;4.43;;;11.00;99.90;;;;;;5050796;28;20555;-81
2023/04/28 03:17:49;;;;;;;5.40;4.20;;;11.00;99.90;;;;;;5026861;28;20229;-81
2023/04/28 03:20:16;;;;;;;6.20;4.80;;;11.10;99.90;;;;;;5039900;28;20221;-80
2023/04/28 03:22:44;;;;;;;4.70;4.03;;;11.10;99.90;;;;;;5043701;28;20202;-80
2023/04/28 03:25:11;;;;;;;4.63;4.13;;;11.10;99.90;;;;;;5037080;28;20293;-81
2023/04/28 03:27:46;;;;;;;6.37;4.80;;;11.10;99.90;;;;;;5032185;28;20240;-80
2023/04/28 03:30:13;;;;;;;5.67;5.07;;;11.10;99.90;;;;;;5035316;28;20202;-81
2023/04/28 03:32:40;;;;;;;5.13;4.63;;;11.10;99.90;;;;;;5037221;28;20216;-79
2023/04/28 03:35:08;;;;;;;5.50;4.73;;;11.10;99.90;;;;;;5038264;28;20197;-79
2023/04/28 03:37:35;;;;;;;5.87;5.10;;;11.10;99.90;;;;;;5036817;28;20248;-78
2023/04/28 03:40:04;;;;;;;6.00;4.97;;;11.10;99.90;;;;;;5055394;28;20200;-78
2023/04/28 03:42:43;;;;;;;6.37;4.60;;;11.20;99.90;;;;;;5036567;28;20200;-79
2023/04/28 03:45:17;;;;;;;5.00;4.50;;;11.20;99.90;;;;;;5036562;28;20685;-78
2023/04/28 03:47:44;;;;;;;5.87;5.10;;;11.20;99.90;;;;;;5052309;28;20299;-79
2023/04/28 03:50:11;;;;;;;5.17;4.67;;;11.30;99.90;;;;;;5033105;28;20249;-79
2023/04/28 03:52:38;;;;;;;4.80;4.30;;;11.30;99.90;;;;;;5037911;28;20208;-78
2023/04/28 03:55:09;;;;;;;6.67;5.27;;;11.20;99.90;;;;;;5036444;28;20237;-79
2023/04/28 03:57:36;;;;;;;5.73;4.73;;;11.30;99.90;;;;;;5036828;28;20232;-78
2023/04/28 04:00:04;;;;;;;7.27;5.50;;;11.30;99.90;;;;;;5020797;28;20708;-79
2023/04/28 04:02:31;;;;;;;7.13;5.33;;;11.20;99.90;;;;;;5041189;28;20275;-79
2023/04/28 04:04:58;;;;;;;6.17;5.00;;;11.20;99.90;;;;;;5022494;28;20202;-78
2023/04/28 04:07:25;;;;;;;5.10;4.37;;;11.20;99.90;;;;;;5032335;28;20220;-79
2023/04/28 04:09:51;;;;;;;5.07;4.57;;;11.20;99.90;;;;;;5031190;28;20218;-78
2023/04/28 04:12:19;;;;;;;5.43;4.93;;;11.20;99.90;;;;;;5039746;28;20213;-78
2023/04/28 04:14:46;;;;;;;5.17;4.67;;;11.20;99.90;;;;;;5038918;28;20196;-78
2023/04/28 04:17:14;;;;;;;6.10;4.27;;;11.20;99.90;;;;;;5039172;28;20224;-78
2023/04/28 04:19:42;;;;;;;5.10;4.50;;;11.30;99.90;;;;;;5039039;28;20229;-78
2023/04/28 04:22:12;;;;;;;7.00;5.33;;;11.30;99.90;;;;;;5039551;28;20548;-79
2023/04/28 04:24:38;;;;;;;6.10;5.10;;;11.30;99.90;;;;;;5038967;28;20202;-79
2023/04/28 04:27:05;;;;;;;5.30;4.80;;;11.30;99.90;;;;;;5039030;28;20231;-78
2023/04/28 04:29:40;;;;;;;5.87;5.13;;;11.30;99.90;;;;;;5038682;28;20296;-79
2023/04/28 04:32:12;;;;;;;5.73;4.83;;;11.30;99.90;;;;;;5039200;28;20209;-78
2023/04/28 04:34:40;;;;;;;6.90;4.90;;;11.40;99.90;;;;;;5038691;28;20256;-78
2023/04/28 04:37:09;;;;;;;5.20;4.50;;;11.40;99.90;;;;;;5038949;28;20226;-79
2023/04/28 04:39:41;;;;;;;5.77;4.87;;;11.40;99.90;;;;;;5038583;28;20251;-79
2023/04/28 04:42:09;;;;;;;4.93;4.43;;;11.40;99.90;;;;;;5032958;28;20257;-78
2023/04/28 04:44:47;;;;;;;6.00;5.43;;;11.40;99.90;;;;;;5037744;28;20692;-79
2023/04/28 04:47:27;;;;;;;7.33;5.57;;;11.40;99.90;;;;;;5022448;28;20233;-78
2023/04/28 04:49:54;;;;;;;6.70;5.30;;;11.40;99.90;;;;;;5038282;28;20709;-78
2023/04/28 04:52:21;;;;;;;8.23;6.10;;;11.40;99.90;;;;;;5038488;28;20256;-78
2023/04/28 04:54:47;;;;;;;7.30;4.83;;;11.40;99.90;;;;;;5046527;28;20200;-78
2023/04/28 04:57:15;;;;;;;6.03;5.10;;;11.40;99.90;;;;;;5037905;28;20706;-78
2023/04/28 05:00:03;;;;;;;6.23;5.50;;;11.40;99.90;;;;;;5056710;28;20201;-79
2023/04/28 05:02:30;;;;;;;5.90;4.93;;;11.30;99.90;;;;;;5036185;28;20194;-79
2023/04/28 05:04:57;;;;;;;6.07;5.47;;;11.40;99.90;;;;;;5038467;28;20199;-79
2023/04/28 05:07:25;;;;;;;6.17;5.57;;;11.40;99.90;;;;;;5031650;28;20272;-78
2023/04/28 05:09:52;;;;;;;6.17;5.50;;;11.40;99.90;;;;;;5057612;28;20230;-79
2023/04/28 05:12:19;;;;;;;10.53;5.87;;;11.40;99.90;;;;;;5042518;28;20198;-79
2023/04/28 05:14:46;;;;;;;8.43;5.80;;;11.40;99.90;;;;;;5037510;28;20269;-79
2023/04/28 05:17:17;;;;;;;8.03;5.83;;;11.40;99.90;;;;;;5037383;28;20219;-79
2023/04/28 05:19:44;;;;;;;6.33;5.33;;;11.40;99.90;;;;;;5037478;28;20692;-80
2023/04/28 05:22:11;;;;;;;5.77;5.17;;;11.40;99.90;;;;;;5035210;28;20197;-80
2023/04/28 05:24:38;;;;;;;7.43;5.87;;;11.50;99.90;;;;;;5034825;28;20202;-81
2023/04/28 05:27:04;;;;;;;6.00;5.40;;;11.50;99.90;;;;;;5034965;28;20226;-81
2023/04/28 05:29:31;;;;;;;5.93;5.33;;;11.60;99.90;;;;;;5034792;28;20250;-81
2023/04/28 05:31:58;;;;;;;5.20;4.70;;;11.70;99.90;;;;;;5034710;28;20201;-80
2023/04/28 05:34:26;;;;;;;5.17;4.67;;;11.80;99.90;;;;;;5034912;28;20202;-80
2023/04/28 05:36:54;;;;;;;4.63;4.23;;;11.90;99.90;;;;;;5026669;28;20223;-80
2023/04/28 05:39:24;;;;;;;5.50;5.10;;;12.00;99.90;;;;;;5035121;28;20206;-81
2023/04/28 05:41:54;;;;;;;5.33;4.80;;;12.10;99.90;;;;;;5036752;28;20198;-81
2023/04/28 05:44:21;;;;;;;4.33;3.93;;;12.10;99.90;;;;;;5034396;28;20206;-81
2023/04/28 05:46:48;;;;;;;6.30;4.13;;;12.10;99.90;;;;;;5034416;28;20322;-81
2023/04/28 05:49:18;;;;;;;5.30;4.10;;;12.20;99.90;;;;;;5035175;28;20214;-82
2023/04/28 05:51:46;;;;;;;4.50;4.10;;;12.20;99.90;;;;;;5034644;28;20588;-82
2023/04/28 05:54:13;;;;;;;4.73;4.23;;;12.20;99.90;;;;;;5034146;28;20198;-81
2023/04/28 05:56:45;;;;;;;6.07;5.30;;;12.20;99.90;;;;;;5032250;28;20833;-81
2023/04/28 05:59:12;;;;;;;4.90;4.40;;;12.30;99.90;;;;;;5028723;28;20584;-80
2023/04/28 06:01:38;;;;;;;6.13;4.50;;;12.30;99.90;;;;;;5034244;28;20697;-81
2023/04/28 06:04:05;;;;;;;4.80;4.37;;;12.30;99.90;;;;;;5034134;28;20211;-80
2023/04/28 06:06:33;;;;;;;4.63;4.23;;;12.40;99.90;;;;;;5032106;28;20223;-81
2023/04/28 06:09:02;;;;;;;5.03;4.33;;;12.40;99.90;;;;;;5025921;28;20230;-82
2023/04/28 06:11:29;;;;;;;4.50;4.07;;;12.40;99.90;;;;;;5035893;28;20199;-81
2023/04/28 06:13:56;;;;;;;4.70;4.30;;;12.40;99.90;;;;;;5038377;28;20199;-81
2023/04/28 06:16:24;;;;;;;4.73;4.33;;;12.50;99.90;;;;;;5033839;28;20226;-80
2023/04/28 06:18:52;;;;;;;4.83;4.43;;;12.50;99.90;;;;;;5033952;28;20282;-81
2023/04/28 06:21:20;;;;;;;4.63;4.20;;;12.60;99.90;;;;;;5027148;28;20246;-83
2023/04/28 06:23:47;;;;;;;4.77;4.20;;;12.60;99.90;;;;;;5016982;28;20207;-81
2023/04/28 06:26:15;;;;;;;4.47;4.07;;;12.70;99.90;;;;;;5032980;28;20293;-80
2023/04/28 06:28:42;;;;;;;5.63;4.37;;;12.80;99.90;;;;;;5032685;28;20199;-80
2023/04/28 06:31:09;;;;;;;5.23;4.30;;;12.80;99.90;;;;;;5043194;28;20202;-81
2023/04/28 06:33:35;;;;;;;5.57;4.67;;;12.90;99.90;;;;;;5041643;28;20203;-81
2023/04/28 06:36:03;;;;;;;4.97;4.50;;;12.90;99.90;;;;;;5040995;28;20226;-81
2023/04/28 06:38:30;;;;;;;5.53;5.03;;;12.90;99.90;;;;;;5042243;28;20586;-81
2023/04/28 06:40:56;;;;;;;3.90;3.60;;;13.00;99.90;;;;;;5033905;28;20569;-81
2023/04/28 06:43:25;;;;;;;5.03;4.10;;;13.00;99.90;;;;;;5034093;28;20597;-81
2023/04/28 06:46:02;;;;;;;4.50;4.10;;;13.00;99.90;;;;;;5033703;28;20698;-81
2023/04/28 06:48:29;;;;;;;4.63;4.13;;;13.00;99.90;;;;;;5033680;28;20204;-82
2023/04/28 06:50:56;;;;;;;5.00;4.07;;;13.00;99.90;;;;;;5033901;28;20238;-81
2023/04/28 06:53:23;;;;;;;4.57;4.17;;;13.00;99.90;;;;;;5051254;28;20200;-81
2023/04/28 06:55:50;;;;;;;7.07;4.33;;;13.00;99.90;;;;;;5041463;28;20210;-81
2023/04/28 06:58:17;;;;;;;4.60;4.20;;;13.00;99.90;;;;;;5050571;28;20204;-81
2023/04/28 07:00:45;;;;;;;4.57;4.10;;;13.00;99.90;;;;;;5033440;28;20210;-81
2023/04/28 07:03:12;;;;;;;4.57;4.00;;;13.00;99.90;;;;;;5024795;28;20195;-81
2023/04/28 07:05:39;;;;;;;4.37;3.97;;;13.00;99.90;;;;;;5032218;28;20276;-81
2023/04/28 07:08:06;;;;;;;4.93;4.40;;;13.00;99.90;;;;;;5044039;28;20246;-81
2023/04/28 07:10:33;;;;;;;4.50;4.10;;;13.00;99.90;;;;;;5033509;28;20227;-80
2023/04/28 07:12:59;;;;;;;4.03;3.60;;;13.00;99.90;;;;;;5033900;28;20282;-81
2023/04/28 07:15:26;;;;;;;4.23;3.83;;;13.00;99.90;;;;;;5051873;28;20199;-81
2023/04/28 07:17:55;;;;;;;4.37;3.77;;;13.00;99.90;;;;;;5050840;28;20227;-81
2023/04/28 07:20:21;;;;;;;4.10;3.80;;;13.10;99.90;;;;;;5033307;28;20199;-81
2023/04/28 07:22:48;;;;;;;4.13;3.73;;;13.10;99.90;;;;;;5042526;28;20204;-81
2023/04/28 07:25:15;;;;;;;4.00;3.70;;;13.10;99.90;;;;;;5050996;28;20745;-81
2023/04/28 07:27:42;;;;;;;4.83;3.73;;;13.10;99.90;;;;;;5033094;28;20734;-82
2023/04/28 07:30:09;;;;;;;4.37;3.97;;;13.10;99.90;;;;;;5051048;28;20741;-81
2023/04/28 07:32:36;;;;;;;3.90;3.60;;;13.20;99.90;;;;;;5050479;28;20201;-80
2023/04/28 07:35:05;;;;;;;4.23;3.87;;;13.20;99.90;;;;;;5051470;28;20548;-81
2023/04/28 07:37:32;;;;;;;4.27;3.60;;;13.20;99.90;;;;;;5035633;28;20288;-79
2023/04/28 07:39:59;;;;;;;4.53;4.13;;;13.20;99.90;;;;;;5056782;28;20194;-79
2023/04/28 07:42:26;;;;;;;4.60;4.20;;;13.30;99.90;;;;;;5037953;28;20590;-80
2023/04/28 07:44:53;;;;;;;4.10;3.80;;;13.30;99.90;;;;;;5054920;28;20278;-80
2023/04/28 07:47:19;;;;;;;4.23;3.90;;;13.30;99.90;;;;;;5037197;28;20269;-82
2023/04/28 07:49:46;;;;;;;4.73;4.23;;;13.30;99.90;;;;;;5035228;28;20249;-81
2023/04/28 07:52:15;;;;;;;3.43;3.13;;;13.30;99.90;;;;;;5048337;28;20208;-80
2023/04/28 07:54:41;;;;;;;4.10;3.70;;;13.40;99.90;;;;;;5036452;28;20200;-81
2023/04/28 07:57:09;;;;;;;4.30;3.90;;;13.40;99.90;;;;;;5036860;28;20231;-80
2023/04/28 07:59:36;;;;;;;4.90;4.40;;;13.30;99.90;;;;;;5030300;28;20262;-80
2023/04/28 08:02:03;;;;;;;5.57;3.93;;;13.30;99.90;;;;;;5024399;28;20219;-81
2023/04/28 08:04:32;;;;;;;4.87;4.47;;;13.30;99.90;;;;;;5021137;28;20273;-80
2023/04/28 08:06:59;;;;;;;4.57;4.27;;;13.30;99.90;;;;;;5053688;28;20223;-81
2023/04/28 08:09:27;;;;;;;5.03;4.70;;;13.30;99.90;;;;;;5046940;28;20207;-81
2023/04/28 08:11:54;;;;;;;4.50;4.10;;;13.30;99.90;;;;;;5026872;28;20627;-80
2023/04/28 08:14:21;;;;;;;5.00;4.60;;;13.30;99.90;;;;;;5042829;28;20197;-81
2023/04/28 08:16:48;;;;;;;4.53;4.13;;;13.30;99.90;;;;;;5026154;28;20222;-81
2023/04/28 08:19:15;;;;;;;5.07;4.03;;;13.30;99.90;;;;;;5025647;28;20235;-81
2023/04/28 08:21:41;;;;;;;5.03;4.63;;;13.40;99.90;;;;;;5033324;28;20714;-80
2023/04/28 08:24:09;;;;;;;5.13;4.63;;;13.40;99.90;;;;;;5036019;28;20281;-81
2023/04/28 08:26:38;;;;;;;5.00;4.60;;;13.40;99.90;;;;;;5035966;28;20600;-81
2023/04/28 08:29:05;;;;;;;5.80;5.30;;;13.50;99.90;;;;;;5053723;28;20205;-81
2023/04/28 08:31:32;;;;;;;6.20;5.53;;;13.50;99.90;;;;;;5036231;28;20221;-80
2023/04/28 08:33:59;;;;;;;6.33;5.73;;;13.60;99.90;;;;;;5053962;28;20714;-82
2023/04/28 08:36:30;;;;;;;5.50;5.00;;;13.60;99.90;;;;;;5053328;28;20671;-81
2023/04/28 08:38:58;;;;;;;5.80;5.13;;;13.60;99.90;;;;;;5045326;28;20282;-81
2023/04/28 08:41:26;;;;;;;6.17;5.57;;;13.70;99.90;;;;;;5023543;28;20223;-80
2023/04/28 08:43:54;;;;;;;6.83;6.17;;;13.70;99.90;;;;;;5035811;28;20559;-81
2023/04/28 08:46:22;;;;;;;6.57;5.87;;;13.70;99.90;;;;;;5037645;28;20736;-82
2023/04/28 08:48:50;;;;;;;6.30;5.70;;;13.70;99.90;;;;;;5035484;28;20204;-81
2023/04/28 08:51:26;;;;;;;5.80;5.30;;;13.70;99.90;;;;;;5036088;28;20273;-82
2023/04/28 08:53:55;;;;;;;5.57;4.90;;;13.80;99.90;;;;;;5035428;28;20209;-81
2023/04/28 08:56:26;;;;;;;5.60;5.00;;;13.90;99.90;;;;;;5056254;28;20212;-84
2023/04/28 08:58:55;;;;;;;6.60;5.50;;;13.90;99.90;;;;;;5056058;28;20203;-83
2023/04/28 09:01:22;;;;;;;5.73;5.23;;;14.00;99.90;;;;;;5038537;28;20203;-84
2023/04/28 09:03:49;;;;;;;5.20;4.70;;;14.10;99.90;;;;;;5048438;28;20225;-82
2023/04/28 09:06:16;;;;;;;6.60;6.00;;;14.10;99.90;;;;;;5055816;28;20776;-82
2023/04/28 09:08:43;;;;;;;5.87;4.90;;;14.30;99.90;;;;;;5037966;28;20205;-84
2023/04/28 09:11:12;;;;;;;4.70;4.30;;;14.50;99.90;;;;;;5043356;28;20249;-80
2023/04/28 09:13:40;;;;;;;5.17;4.67;;;14.60;99.90;;;;;;5037451;28;20205;-79
2023/04/28 09:16:08;;;;;;;5.23;4.73;;;14.90;99.90;;;;;;5056276;28;20219;-79
2023/04/28 09:18:35;;;;;;;5.53;4.50;;;15.00;99.90;;;;;;5037878;28;20195;-80
2023/04/28 09:21:06;;;;;;;4.73;4.33;;;15.10;99.90;;;;;;5051022;28;20209;-78
2023/04/28 09:23:33;;;;;;;4.40;4.00;;;15.00;99.90;;;;;;5062017;28;20201;-78
2023/04/28 09:26:02;;;;;;;4.33;3.87;;;15.00;99.90;;;;;;5045564;28;20985;-79
2023/04/28 09:28:29;;;;;;;4.30;3.90;;;14.90;99.90;;;;;;5062611;28;20198;-79
2023/04/28 09:30:56;;;;;;;4.07;3.67;;;14.90;99.90;;;;;;5064407;28;20222;-79
2023/04/28 09:33:24;;;;;;;4.53;3.83;;;14.90;99.90;;;;;;5030697;28;20622;-79
2023/04/28 09:35:52;;;;;;;4.67;4.10;;;14.90;99.90;;;;;;5036008;28;20210;-80
2023/04/28 09:38:20;;;;;;;3.83;3.47;;;15.00;99.90;;;;;;5028553;28;20199;-79
2023/04/28 09:40:55;;;;;;;4.40;3.70;;;15.10;99.90;;;;;;5035098;28;20263;-78
2023/04/28 09:43:31;;;;;;;3.60;3.30;;;15.20;99.90;;;;;;5052526;28;20542;-78
2023/04/28 09:45:59;;;;;;;3.40;3.20;;;15.50;99.90;;;;;;5034363;28;20204;-78
2023/04/28 09:48:31;;;;;;;3.93;3.63;;;15.70;99.90;;;;;;5034861;28;20268;-77
2023/04/28 09:50:59;;;;;;;4.77;3.63;;;15.90;99.90;;;;;;5045426;28;20243;-78
2023/04/28 09:53:27;;;;;;;3.17;2.97;;;16.10;99.90;;;;;;5034369;28;20207;-79
2023/04/28 09:55:55;;;;;;;3.20;3.00;;;16.40;99.90;;;;;;5034685;28;20261;-78
2023/04/28 09:58:23;;;;;;;3.40;3.20;;;16.60;99.90;;;;;;5029053;28;20554;-77
2023/04/28 10:00:54;;;;;;;3.00;2.70;;;16.80;99.90;;;;;;5049426;28;20216;-79
2023/04/28 10:03:23;;;;;;;3.20;2.80;;;16.90;99.90;;;;;;5033964;28;20192;-78
2023/04/28 10:05:53;;;;;;;2.83;2.63;;;17.10;99.90;;;;;;5026375;28;20290;-77
2023/04/28 10:08:20;;;;;;;2.93;2.70;;;17.20;99.90;;;;;;5026570;28;20199;-78
2023/04/28 10:10:49;;;;;;;3.17;2.87;;;17.40;99.90;;;;;;5034744;28;20310;-79
2023/04/28 10:13:18;;;;;;;2.70;2.50;;;17.50;99.90;;;;;;5052974;28;20192;-79
2023/04/28 10:15:45;;;;;;;3.80;3.60;;;17.70;99.90;;;;;;5052871;28;20669;-80
2023/04/28 10:18:13;;;;;;;2.57;2.47;;;18.00;99.90;;;;;;5050948;28;20201;-79
2023/04/28 10:20:42;;;;;;;2.70;2.50;;;18.10;99.90;;;;;;5032556;28;20732;-81
2023/04/28 10:23:39;;;;;;;2.80;2.60;;;18.40;99.90;;;;;;5018781;28;20205;-79
2023/04/28 10:26:13;;;;;;;2.50;2.40;;;18.50;99.90;;;;;;5036146;28;20225;-80
2023/04/28 10:28:46;;;;;;;2.50;2.40;;;18.60;99.90;;;;;;5035566;28;20642;-79
2023/04/28 10:31:14;;;;;;;2.60;2.40;;;18.80;99.90;;;;;;5052436;28;20210;-82
2023/04/28 10:33:42;;;;;;;2.50;2.40;;;19.00;99.90;;;;;;5036377;28;20202;-80
2023/04/28 10:36:10;;;;;;;2.50;2.40;;;19.20;99.90;;;;;;5053674;28;20368;-77
2023/04/28 10:39:08;;;;;;;2.60;2.50;;;19.30;99.90;;;;;;5035713;28;20236;-80
2023/04/28 10:41:35;;;;;;;2.50;2.40;;;19.40;99.90;;;;;;5048753;28;20283;-80
2023/04/28 10:44:40;;;;;;;2.40;2.30;;;19.40;99.90;;;;;;5054654;28;20265;-81
2023/04/28 10:47:09;;;;;;;2.33;2.10;;;19.40;99.90;;;;;;5052629;28;20236;-79
2023/04/28 10:50:10;;;;;;;2.30;2.20;;;19.20;99.90;;;;;;5052294;28;20210;-79
2023/04/28 10:52:50;;;;;;;2.17;2.07;;;18.90;99.90;;;;;;5026840;28;20742;-79
2023/04/28 10:55:36;;;;;;;2.20;2.10;;;19.00;99.90;;;;;;5032912;28;20289;-79
2023/04/28 10:58:31;;;;;;;2.43;2.27;;;18.80;99.90;;;;;;5033893;28;20215;-80
2023/04/28 11:01:24;;;;;;;2.40;2.30;;;18.80;99.90;;;;;;5033862;28;20203;-79
2023/04/28 11:03:58;;;;;;;2.20;2.10;;;19.10;99.90;;;;;;5034104;28;20206;-80
2023/04/28 11:06:27;;;;;;;2.43;2.17;;;19.60;99.90;;;;;;5034389;28;20740;-80
2023/04/28 11:08:56;;;;;;;2.20;2.10;;;20.20;99.90;;;;;;5033159;28;20687;-80
2023/04/28 11:11:25;;;;;;;4.30;3.43;;;20.70;99.90;;;;;;5052037;28;20207;-79
2023/04/28 11:13:53;;;;;;;5.83;4.40;;;21.00;99.90;;;;;;5055271;28;20238;-79
2023/04/28 11:16:25;;;;;;;4.03;3.53;;;21.00;99.90;;;;;;5039451;28;20219;-80
2023/04/28 11:18:58;;;;;;;4.03;2.97;;;21.00;99.90;;;;;;5040810;28;20202;-77
2023/04/28 11:21:27;;;;;;;3.13;2.83;;;20.80;99.90;;;;;;5039766;28;20686;-76
2023/04/28 11:23:53;;;;;;;4.87;4.10;;;20.60;99.90;;;;;;5039222;28;20203;-77
2023/04/28 11:26:22;;;;;;;8.37;6.50;;;20.60;99.90;;;;;;5057072;28;20265;-78
2023/04/28 11:28:55;;;;;;;4.00;3.60;;;20.60;99.90;;;;;;5057314;28;20229;-77
2023/04/28 11:31:23;;;;;;;3.07;2.87;;;20.50;99.90;;;;;;5038732;28;20207;-77
2023/04/28 11:33:53;;;;;;;3.80;3.23;;;20.50;99.90;;;;;;5038436;28;20674;-78
2023/04/28 11:36:38;;;;;;;3.43;3.13;;;20.40;99.90;;;;;;5038765;28;20227;-78
2023/04/28 11:39:07;;;;;;;2.93;2.73;;;20.20;99.90;;;;;;5048481;28;20195;-78
2023/04/28 11:41:34;;;;;;;3.20;3.00;;;20.10;99.90;;;;;;5039320;28;20202;-77
2023/04/28 11:44:10;;;;;;;3.47;3.17;;;20.10;99.90;;;;;;5038183;28;20734;-77
2023/04/28 11:46:45;;;;;;;3.50;3.20;;;20.30;99.90;;;;;;5038851;28;20772;-78
2023/04/28 11:49:13;;;;;;;2.90;2.70;;;20.30;99.90;;;;;;5057009;28;20190;-78
2023/04/28 11:51:41;;;;;;;2.60;2.47;;;20.20;99.90;;;;;;5033684;28;20273;-79
2023/04/28 11:54:10;;;;;;;2.47;2.37;;;19.90;99.90;;;;;;5057301;28;20202;-77
2023/04/28 11:56:43;;;;;;;2.00;1.90;;;19.90;99.90;;;;;;5038349;28;20702;-78
2023/04/28 11:59:13;;;;;;;1.90;1.80;;;19.90;99.90;;;;;;5032958;28;20265;-78
2023/04/28 12:01:47;;;;;;;2.10;2.00;;;20.00;99.90;;;;;;5038866;28;20220;-78
2023/04/28 12:04:26;;;;;;;1.90;1.90;;;19.90;99.90;;;;;;5025770;28;20203;-78
2023/04/28 12:07:00;;;;;;;2.00;1.90;;;19.90;99.90;;;;;;5041826;28;20224;-77
2023/04/28 12:09:26;;;;;;;2.07;1.83;;;19.90;99.90;;;;;;5056264;28;20203;-78
2023/04/28 12:11:55;;;;;;;1.90;1.80;;;19.90;99.90;;;;;;5037443;28;20317;-77
2023/04/28 12:14:24;;;;;;;1.80;1.80;;;19.90;99.90;;;;;;5037147;28;20671;-78
2023/04/28 12:16:51;;;;;;;2.00;1.90;;;20.00;99.90;;;;;;5056308;28;20219;-77
2023/04/28 12:19:19;;;;;;;1.90;1.90;;;20.00;99.90;;;;;;5032728;28;20207;-78
2023/04/28 12:22:00;;;;;;;2.00;1.90;;;20.00;99.90;;;;;;5038579;28;20678;-78
2023/04/28 12:24:27;;;;;;;3.20;2.90;;;19.90;99.90;;;;;;5030506;28;20286;-79
2023/04/28 12:26:54;;;;;;;2.40;2.20;;;20.00;99.90;;;;;;5048134;28;20243;-78
2023/04/28 12:29:39;;;;;;;3.60;2.87;;;19.90;99.90;;;;;;5038124;28;20695;-78
2023/04/28 12:32:11;;;;;;;2.30;2.20;;;20.00;99.90;;;;;;5056464;28;20214;-79
2023/04/28 12:34:39;;;;;;;3.00;2.63;;;20.00;99.90;;;;;;5048836;28;20226;-79
2023/04/28 12:37:07;;;;;;;2.80;2.60;;;20.00;99.90;;;;;;5035859;28;20223;-78
2023/04/28 12:39:34;;;;;;;2.30;2.20;;;19.90;99.90;;;;;;5055806;28;20778;-79
2023/04/28 12:42:02;;;;;;;3.13;2.80;;;19.80;99.90;;;;;;5038934;28;20199;-78
2023/04/28 12:44:34;;;;;;;3.30;2.20;;;19.70;99.90;;;;;;5039414;28;20294;-79
2023/04/28 12:47:03;;;;;;;2.20;2.10;;;19.50;99.90;;;;;;5056584;28;20353;-78
2023/04/28 12:49:30;;;;;;;4.83;2.10;;;19.30;99.90;;;;;;5037765;28;20653;-77
2023/04/28 12:51:57;;;;;;;2.40;2.30;;;19.20;99.90;;;;;;5047159;28;20230;-78
2023/04/28 12:54:23;;;;;;;2.00;1.90;;;19.20;99.90;;;;;;5048174;28;20214;-79
2023/04/28 12:56:50;;;;;;;2.00;1.90;;;19.20;99.90;;;;;;5039326;28;20277;-80